sensor_id;sensor_type;location;lat;lon;timestamp;P1;durP1;ratioP1;P2;durP2;ratioP2
29938;SDS011;16799;50.844;5.304;2023-03-01T00:01:07;9.40;;;8.03;;
29938;SDS011;16799;50.844;5.304;2023-03-01T00:03:37;13.50;;;8.43;;
29938;SDS011;16799;50.844;5.304;2023-03-01T00:06:03;15.30;;;8.37;;
29938;SDS011;16799;50.844;5.304;2023-03-01T00:08:29;13.07;;;9.87;;
29938;SDS011;16799;50.844;5.304;2023-03-01T00:11:06;13.67;;;9.27;;
29938;SDS011;16799;50.844;5.304;2023-03-01T00:13:35;9.50;;;8.50;;
29938;SDS011;16799;50.844;5.304;2023-03-01T00:16:02;14.17;;;10.20;;
29938;SDS011;16799;50.844;5.304;2023-03-01T00:18:29;13.10;;;10.87;;
29938;SDS011;16799;50.844;5.304;2023-03-01T00:20:55;14.90;;;12.27;;
29938;SDS011;16799;50.844;5.304;2023-03-01T00:23:21;20.63;;;13.23;;
29938;SDS011;16799;50.844;5.304;2023-03-01T00:25:47;17.10;;;11.50;;
29938;SDS011;16799;50.844;5.304;2023-03-01T00:28:13;12.97;;;10.83;;
29938;SDS011;16799;50.844;5.304;2023-03-01T00:30:39;20.97;;;12.00;;
29938;SDS011;16799;50.844;5.304;2023-03-01T00:33:05;17.00;;;10.50;;
29938;SDS011;16799;50.844;5.304;2023-03-01T00:35:34;14.50;;;12.07;;
29938;SDS011;16799;50.844;5.304;2023-03-01T00:38:00;22.23;;;12.50;;
29938;SDS011;16799;50.844;5.304;2023-03-01T00:40:29;19.43;;;13.50;;
29938;SDS011;16799;50.844;5.304;2023-03-01T00:42:58;14.93;;;11.63;;
29938;SDS011;16799;50.844;5.304;2023-03-01T00:45:23;17.17;;;12.13;;
29938;SDS011;16799;50.844;5.304;2023-03-01T00:47:49;19.40;;;13.40;;
29938;SDS011;16799;50.844;5.304;2023-03-01T00:50:16;13.80;;;11.93;;
29938;SDS011;16799;50.844;5.304;2023-03-01T00:52:42;12.80;;;10.83;;
29938;SDS011;16799;50.844;5.304;2023-03-01T00:55:08;12.83;;;10.57;;
29938;SDS011;16799;50.844;5.304;2023-03-01T00:57:35;14.10;;;11.63;;
29938;SDS011;16799;50.844;5.304;2023-03-01T01:00:00;18.30;;;12.50;;
29938;SDS011;16799;50.844;5.304;2023-03-01T01:02:26;16.40;;;11.80;;
29938;SDS011;16799;50.844;5.304;2023-03-01T01:04:52;12.70;;;11.40;;
29938;SDS011;16799;50.844;5.304;2023-03-01T01:07:18;14.17;;;11.90;;
29938;SDS011;16799;50.844;5.304;2023-03-01T01:09:45;17.87;;;13.07;;
29938;SDS011;16799;50.844;5.304;2023-03-01T01:12:11;15.90;;;13.43;;
29938;SDS011;16799;50.844;5.304;2023-03-01T01:14:37;16.70;;;11.50;;
29938;SDS011;16799;50.844;5.304;2023-03-01T01:17:02;15.83;;;11.80;;
29938;SDS011;16799;50.844;5.304;2023-03-01T01:19:28;17.00;;;12.50;;
29938;SDS011;16799;50.844;5.304;2023-03-01T01:21:54;16.67;;;11.40;;
29938;SDS011;16799;50.844;5.304;2023-03-01T01:24:20;16.17;;;12.80;;
29938;SDS011;16799;50.844;5.304;2023-03-01T01:26:45;19.63;;;12.07;;
29938;SDS011;16799;50.844;5.304;2023-03-01T01:29:12;12.40;;;10.47;;
29938;SDS011;16799;50.844;5.304;2023-03-01T01:31:38;13.73;;;11.07;;
29938;SDS011;16799;50.844;5.304;2023-03-01T01:34:06;12.93;;;10.13;;
29938;SDS011;16799;50.844;5.304;2023-03-01T01:36:33;17.33;;;10.50;;
29938;SDS011;16799;50.844;5.304;2023-03-01T01:38:59;16.40;;;12.50;;
29938;SDS011;16799;50.844;5.304;2023-03-01T01:41:26;10.47;;;9.30;;
29938;SDS011;16799;50.844;5.304;2023-03-01T01:46:58;17.40;;;9.70;;
29938;SDS011;16799;50.844;5.304;2023-03-01T01:49:32;10.23;;;9.13;;
29938;SDS011;16799;50.844;5.304;2023-03-01T01:52:10;18.57;;;9.97;;
29938;SDS011;16799;50.844;5.304;2023-03-01T01:57:27;8.47;;;7.17;;
29938;SDS011;16799;50.844;5.304;2023-03-01T01:59:59;12.73;;;9.43;;
29938;SDS011;16799;50.844;5.304;2023-03-01T02:02:29;11.70;;;8.73;;
29938;SDS011;16799;50.844;5.304;2023-03-01T02:04:58;10.23;;;8.90;;
29938;SDS011;16799;50.844;5.304;2023-03-01T02:07:35;7.87;;;7.03;;
29938;SDS011;16799;50.844;5.304;2023-03-01T02:10:04;10.13;;;9.10;;
29938;SDS011;16799;50.844;5.304;2023-03-01T02:12:30;9.03;;;8.20;;
29938;SDS011;16799;50.844;5.304;2023-03-01T02:14:57;8.57;;;7.77;;
29938;SDS011;16799;50.844;5.304;2023-03-01T02:17:23;13.10;;;8.53;;
29938;SDS011;16799;50.844;5.304;2023-03-01T02:22:34;12.70;;;9.43;;
29938;SDS011;16799;50.844;5.304;2023-03-01T02:27:51;11.73;;;10.57;;
29938;SDS011;16799;50.844;5.304;2023-03-01T02:30:38;10.70;;;9.20;;
29938;SDS011;16799;50.844;5.304;2023-03-01T02:33:25;14.30;;;9.17;;
29938;SDS011;16799;50.844;5.304;2023-03-01T02:35:51;12.90;;;9.00;;
29938;SDS011;16799;50.844;5.304;2023-03-01T02:38:19;11.10;;;9.70;;
29938;SDS011;16799;50.844;5.304;2023-03-01T02:40:45;9.83;;;8.07;;
29938;SDS011;16799;50.844;5.304;2023-03-01T02:43:14;12.40;;;10.17;;
29938;SDS011;16799;50.844;5.304;2023-03-01T02:45:51;11.80;;;9.20;;
29938;SDS011;16799;50.844;5.304;2023-03-01T02:48:18;13.60;;;10.43;;
29938;SDS011;16799;50.844;5.304;2023-03-01T02:56:20;14.60;;;9.77;;
29938;SDS011;16799;50.844;5.304;2023-03-01T02:58:46;10.63;;;9.60;;
29938;SDS011;16799;50.844;5.304;2023-03-01T03:01:16;10.87;;;9.80;;
29938;SDS011;16799;50.844;5.304;2023-03-01T03:03:43;14.63;;;8.93;;
29938;SDS011;16799;50.844;5.304;2023-03-01T03:06:08;14.43;;;9.30;;
29938;SDS011;16799;50.844;5.304;2023-03-01T03:08:34;10.50;;;9.50;;
29938;SDS011;16799;50.844;5.304;2023-03-01T03:11:00;19.40;;;10.03;;
29938;SDS011;16799;50.844;5.304;2023-03-01T03:13:26;9.87;;;8.83;;
29938;SDS011;16799;50.844;5.304;2023-03-01T03:15:53;11.40;;;9.10;;
29938;SDS011;16799;50.844;5.304;2023-03-01T03:18:20;11.57;;;8.37;;
29938;SDS011;16799;50.844;5.304;2023-03-01T03:20:47;13.17;;;10.43;;
29938;SDS011;16799;50.844;5.304;2023-03-01T03:23:17;16.43;;;9.07;;
29938;SDS011;16799;50.844;5.304;2023-03-01T03:25:44;10.53;;;8.43;;
29938;SDS011;16799;50.844;5.304;2023-03-01T03:28:12;10.07;;;8.73;;
29938;SDS011;16799;50.844;5.304;2023-03-01T03:30:38;11.77;;;8.60;;
29938;SDS011;16799;50.844;5.304;2023-03-01T03:33:06;9.30;;;8.60;;
29938;SDS011;16799;50.844;5.304;2023-03-01T03:35:33;12.13;;;9.33;;
29938;SDS011;16799;50.844;5.304;2023-03-01T03:38:05;12.57;;;9.40;;
29938;SDS011;16799;50.844;5.304;2023-03-01T03:40:35;9.13;;;8.40;;
29938;SDS011;16799;50.844;5.304;2023-03-01T03:43:03;12.87;;;10.37;;
29938;SDS011;16799;50.844;5.304;2023-03-01T03:45:31;16.03;;;11.13;;
29938;SDS011;16799;50.844;5.304;2023-03-01T03:47:58;10.30;;;9.33;;
29938;SDS011;16799;50.844;5.304;2023-03-01T03:50:25;13.10;;;10.50;;
29938;SDS011;16799;50.844;5.304;2023-03-01T03:52:51;10.80;;;9.90;;
29938;SDS011;16799;50.844;5.304;2023-03-01T03:55:17;13.13;;;10.23;;
29938;SDS011;16799;50.844;5.304;2023-03-01T03:57:44;11.27;;;10.33;;
29938;SDS011;16799;50.844;5.304;2023-03-01T04:00:17;12.80;;;10.77;;
29938;SDS011;16799;50.844;5.304;2023-03-01T04:02:45;17.20;;;10.57;;
29938;SDS011;16799;50.844;5.304;2023-03-01T04:05:12;12.30;;;10.57;;
29938;SDS011;16799;50.844;5.304;2023-03-01T04:07:39;10.83;;;9.83;;
29938;SDS011;16799;50.844;5.304;2023-03-01T04:10:07;12.10;;;10.10;;
29938;SDS011;16799;50.844;5.304;2023-03-01T04:12:38;12.87;;;10.73;;
29938;SDS011;16799;50.844;5.304;2023-03-01T04:15:05;12.50;;;10.60;;
29938;SDS011;16799;50.844;5.304;2023-03-01T04:17:42;11.30;;;10.30;;
29938;SDS011;16799;50.844;5.304;2023-03-01T04:20:09;14.70;;;11.13;;
29938;SDS011;16799;50.844;5.304;2023-03-01T04:22:42;13.70;;;10.90;;
29938;SDS011;16799;50.844;5.304;2023-03-01T04:25:11;13.40;;;11.93;;
29938;SDS011;16799;50.844;5.304;2023-03-01T04:27:39;23.27;;;11.40;;
29938;SDS011;16799;50.844;5.304;2023-03-01T04:30:05;15.80;;;10.80;;
29938;SDS011;16799;50.844;5.304;2023-03-01T04:32:32;14.70;;;11.17;;
29938;SDS011;16799;50.844;5.304;2023-03-01T04:34:58;16.27;;;10.43;;
29938;SDS011;16799;50.844;5.304;2023-03-01T04:37:24;12.20;;;11.03;;
29938;SDS011;16799;50.844;5.304;2023-03-01T04:39:51;18.60;;;11.30;;
29938;SDS011;16799;50.844;5.304;2023-03-01T04:42:17;13.80;;;11.60;;
29938;SDS011;16799;50.844;5.304;2023-03-01T04:44:43;12.03;;;9.83;;
29938;SDS011;16799;50.844;5.304;2023-03-01T04:47:09;12.70;;;11.50;;
29938;SDS011;16799;50.844;5.304;2023-03-01T04:49:35;17.10;;;13.13;;
29938;SDS011;16799;50.844;5.304;2023-03-01T04:52:01;18.20;;;12.00;;
29938;SDS011;16799;50.844;5.304;2023-03-01T04:54:28;14.63;;;11.30;;
29938;SDS011;16799;50.844;5.304;2023-03-01T04:56:54;16.40;;;11.20;;
29938;SDS011;16799;50.844;5.304;2023-03-01T04:59:20;12.60;;;10.63;;
29938;SDS011;16799;50.844;5.304;2023-03-01T05:01:49;16.93;;;11.30;;
29938;SDS011;16799;50.844;5.304;2023-03-01T05:04:20;15.60;;;11.57;;
29938;SDS011;16799;50.844;5.304;2023-03-01T05:06:48;14.70;;;12.80;;
29938;SDS011;16799;50.844;5.304;2023-03-01T05:09:14;14.20;;;11.70;;
29938;SDS011;16799;50.844;5.304;2023-03-01T05:11:40;15.13;;;11.50;;
29938;SDS011;16799;50.844;5.304;2023-03-01T05:14:07;12.37;;;11.20;;
29938;SDS011;16799;50.844;5.304;2023-03-01T05:16:34;20.80;;;12.63;;
29938;SDS011;16799;50.844;5.304;2023-03-01T05:19:01;16.43;;;11.93;;
29938;SDS011;16799;50.844;5.304;2023-03-01T05:21:36;12.83;;;11.47;;
29938;SDS011;16799;50.844;5.304;2023-03-01T05:24:22;14.80;;;10.80;;
29938;SDS011;16799;50.844;5.304;2023-03-01T05:26:48;16.40;;;12.30;;
29938;SDS011;16799;50.844;5.304;2023-03-01T05:29:16;11.30;;;10.23;;
29938;SDS011;16799;50.844;5.304;2023-03-01T05:31:44;14.23;;;11.93;;
29938;SDS011;16799;50.844;5.304;2023-03-01T05:34:09;16.63;;;11.67;;
29938;SDS011;16799;50.844;5.304;2023-03-01T05:36:37;14.87;;;11.57;;
29938;SDS011;16799;50.844;5.304;2023-03-01T05:39:03;14.40;;;11.90;;
29938;SDS011;16799;50.844;5.304;2023-03-01T05:41:29;18.20;;;12.00;;
29938;SDS011;16799;50.844;5.304;2023-03-01T05:43:55;26.80;;;12.27;;
29938;SDS011;16799;50.844;5.304;2023-03-01T05:46:20;12.70;;;11.30;;
29938;SDS011;16799;50.844;5.304;2023-03-01T05:48:49;19.67;;;13.00;;
29938;SDS011;16799;50.844;5.304;2023-03-01T05:51:15;17.97;;;13.30;;
29938;SDS011;16799;50.844;5.304;2023-03-01T05:53:40;14.90;;;13.40;;
29938;SDS011;16799;50.844;5.304;2023-03-01T05:56:06;16.53;;;12.83;;
29938;SDS011;16799;50.844;5.304;2023-03-01T05:58:32;19.00;;;13.77;;
29938;SDS011;16799;50.844;5.304;2023-03-01T06:00:58;22.43;;;13.20;;
29938;SDS011;16799;50.844;5.304;2023-03-01T06:03:24;17.93;;;12.43;;
29938;SDS011;16799;50.844;5.304;2023-03-01T06:05:55;20.80;;;12.73;;
29938;SDS011;16799;50.844;5.304;2023-03-01T06:08:21;20.20;;;13.60;;
29938;SDS011;16799;50.844;5.304;2023-03-01T06:10:47;13.67;;;12.23;;
29938;SDS011;16799;50.844;5.304;2023-03-01T06:13:13;21.70;;;12.60;;
29938;SDS011;16799;50.844;5.304;2023-03-01T06:15:38;16.57;;;13.33;;
29938;SDS011;16799;50.844;5.304;2023-03-01T06:18:04;19.73;;;13.30;;
29938;SDS011;16799;50.844;5.304;2023-03-01T06:20:29;19.13;;;12.87;;
29938;SDS011;16799;50.844;5.304;2023-03-01T06:22:55;19.63;;;12.73;;
29938;SDS011;16799;50.844;5.304;2023-03-01T06:25:22;23.93;;;13.77;;
29938;SDS011;16799;50.844;5.304;2023-03-01T06:27:49;14.23;;;12.83;;
29938;SDS011;16799;50.844;5.304;2023-03-01T06:30:17;17.77;;;13.20;;
29938;SDS011;16799;50.844;5.304;2023-03-01T06:32:44;23.73;;;14.97;;
29938;SDS011;16799;50.844;5.304;2023-03-01T06:35:10;23.10;;;14.17;;
29938;SDS011;16799;50.844;5.304;2023-03-01T06:37:38;20.53;;;14.97;;
29938;SDS011;16799;50.844;5.304;2023-03-01T06:40:05;17.40;;;14.13;;
29938;SDS011;16799;50.844;5.304;2023-03-01T06:42:36;17.10;;;13.23;;
29938;SDS011;16799;50.844;5.304;2023-03-01T06:45:03;15.47;;;13.07;;
29938;SDS011;16799;50.844;5.304;2023-03-01T06:47:30;18.57;;;13.93;;
29938;SDS011;16799;50.844;5.304;2023-03-01T06:49:58;15.60;;;12.70;;
29938;SDS011;16799;50.844;5.304;2023-03-01T06:52:24;26.77;;;13.70;;
29938;SDS011;16799;50.844;5.304;2023-03-01T06:54:50;19.87;;;14.20;;
29938;SDS011;16799;50.844;5.304;2023-03-01T06:57:16;20.53;;;13.90;;
29938;SDS011;16799;50.844;5.304;2023-03-01T06:59:42;21.73;;;13.87;;
29938;SDS011;16799;50.844;5.304;2023-03-01T07:02:11;22.27;;;13.70;;
29938;SDS011;16799;50.844;5.304;2023-03-01T07:04:38;18.70;;;14.77;;
29938;SDS011;16799;50.844;5.304;2023-03-01T07:07:04;19.50;;;13.90;;
29938;SDS011;16799;50.844;5.304;2023-03-01T07:09:30;20.60;;;15.53;;
29938;SDS011;16799;50.844;5.304;2023-03-01T07:11:56;19.50;;;15.73;;
29938;SDS011;16799;50.844;5.304;2023-03-01T07:14:22;20.40;;;16.93;;
29938;SDS011;16799;50.844;5.304;2023-03-01T07:16:50;15.80;;;13.37;;
29938;SDS011;16799;50.844;5.304;2023-03-01T07:19:16;30.17;;;15.27;;
29938;SDS011;16799;50.844;5.304;2023-03-01T07:21:42;19.70;;;12.77;;
29938;SDS011;16799;50.844;5.304;2023-03-01T07:24:08;18.20;;;14.37;;
29938;SDS011;16799;50.844;5.304;2023-03-01T07:26:34;22.40;;;15.40;;
29938;SDS011;16799;50.844;5.304;2023-03-01T07:29:00;19.80;;;14.17;;
29938;SDS011;16799;50.844;5.304;2023-03-01T07:31:29;21.43;;;15.60;;
29938;SDS011;16799;50.844;5.304;2023-03-01T07:33:55;27.33;;;16.17;;
29938;SDS011;16799;50.844;5.304;2023-03-01T07:36:21;22.00;;;16.33;;
29938;SDS011;16799;50.844;5.304;2023-03-01T07:38:47;25.43;;;16.43;;
29938;SDS011;16799;50.844;5.304;2023-03-01T07:41:13;19.13;;;15.73;;
29938;SDS011;16799;50.844;5.304;2023-03-01T07:43:39;21.43;;;15.63;;
29938;SDS011;16799;50.844;5.304;2023-03-01T07:46:05;27.70;;;16.30;;
29938;SDS011;16799;50.844;5.304;2023-03-01T07:48:32;22.17;;;16.07;;
29938;SDS011;16799;50.844;5.304;2023-03-01T07:51:01;24.90;;;16.40;;
29938;SDS011;16799;50.844;5.304;2023-03-01T07:53:29;23.10;;;15.20;;
29938;SDS011;16799;50.844;5.304;2023-03-01T07:56:03;24.93;;;16.67;;
29938;SDS011;16799;50.844;5.304;2023-03-01T07:58:30;19.93;;;15.60;;
29938;SDS011;16799;50.844;5.304;2023-03-01T08:00:56;24.83;;;16.40;;
29938;SDS011;16799;50.844;5.304;2023-03-01T08:03:25;22.60;;;16.13;;
29938;SDS011;16799;50.844;5.304;2023-03-01T08:05:51;17.73;;;14.97;;
29938;SDS011;16799;50.844;5.304;2023-03-01T08:08:16;19.90;;;15.60;;
29938;SDS011;16799;50.844;5.304;2023-03-01T08:10:42;27.17;;;16.33;;
29938;SDS011;16799;50.844;5.304;2023-03-01T08:13:08;22.57;;;15.63;;
29938;SDS011;16799;50.844;5.304;2023-03-01T08:15:33;26.23;;;14.90;;
29938;SDS011;16799;50.844;5.304;2023-03-01T08:17:59;20.07;;;14.03;;
29938;SDS011;16799;50.844;5.304;2023-03-01T08:20:25;25.50;;;16.70;;
29938;SDS011;16799;50.844;5.304;2023-03-01T08:22:51;21.70;;;15.50;;
29938;SDS011;16799;50.844;5.304;2023-03-01T08:25:17;19.30;;;15.60;;
29938;SDS011;16799;50.844;5.304;2023-03-01T08:27:42;23.53;;;14.10;;
29938;SDS011;16799;50.844;5.304;2023-03-01T08:30:08;25.60;;;17.17;;
29938;SDS011;16799;50.844;5.304;2023-03-01T08:32:35;17.27;;;13.07;;
29938;SDS011;16799;50.844;5.304;2023-03-01T08:35:02;24.23;;;15.93;;
29938;SDS011;16799;50.844;5.304;2023-03-01T08:37:28;27.40;;;16.57;;
29938;SDS011;16799;50.844;5.304;2023-03-01T08:39:55;30.63;;;14.30;;
29938;SDS011;16799;50.844;5.304;2023-03-01T08:42:21;18.50;;;14.83;;
29938;SDS011;16799;50.844;5.304;2023-03-01T08:44:47;18.50;;;14.43;;
29938;SDS011;16799;50.844;5.304;2023-03-01T08:47:13;20.53;;;15.00;;
29938;SDS011;16799;50.844;5.304;2023-03-01T08:49:39;23.67;;;15.70;;
29938;SDS011;16799;50.844;5.304;2023-03-01T08:52:04;17.83;;;14.90;;
29938;SDS011;16799;50.844;5.304;2023-03-01T08:54:30;22.03;;;14.43;;
29938;SDS011;16799;50.844;5.304;2023-03-01T08:56:56;19.40;;;14.27;;
29938;SDS011;16799;50.844;5.304;2023-03-01T08:59:25;25.83;;;14.17;;
29938;SDS011;16799;50.844;5.304;2023-03-01T09:01:51;26.50;;;13.50;;
29938;SDS011;16799;50.844;5.304;2023-03-01T09:04:17;21.60;;;15.20;;
29938;SDS011;16799;50.844;5.304;2023-03-01T09:06:43;18.17;;;14.17;;
29938;SDS011;16799;50.844;5.304;2023-03-01T09:09:12;15.33;;;13.77;;
29938;SDS011;16799;50.844;5.304;2023-03-01T09:11:40;19.73;;;14.90;;
29938;SDS011;16799;50.844;5.304;2023-03-01T09:14:06;19.93;;;14.40;;
29938;SDS011;16799;50.844;5.304;2023-03-01T09:16:32;17.87;;;13.17;;
29938;SDS011;16799;50.844;5.304;2023-03-01T09:19:01;20.80;;;13.87;;
29938;SDS011;16799;50.844;5.304;2023-03-01T09:21:27;18.90;;;14.60;;
29938;SDS011;16799;50.844;5.304;2023-03-01T09:23:53;22.30;;;14.27;;
29938;SDS011;16799;50.844;5.304;2023-03-01T09:26:21;16.90;;;13.43;;
29938;SDS011;16799;50.844;5.304;2023-03-01T09:28:48;18.30;;;14.83;;
29938;SDS011;16799;50.844;5.304;2023-03-01T09:31:15;24.17;;;14.23;;
29938;SDS011;16799;50.844;5.304;2023-03-01T09:33:44;18.70;;;14.00;;
29938;SDS011;16799;50.844;5.304;2023-03-01T09:36:13;19.40;;;13.10;;
29938;SDS011;16799;50.844;5.304;2023-03-01T09:38:44;17.70;;;11.67;;
29938;SDS011;16799;50.844;5.304;2023-03-01T09:41:11;17.37;;;13.10;;
29938;SDS011;16799;50.844;5.304;2023-03-01T09:46:56;17.73;;;12.67;;
29938;SDS011;16799;50.844;5.304;2023-03-01T09:49:27;20.70;;;13.17;;
29938;SDS011;16799;50.844;5.304;2023-03-01T09:51:59;13.47;;;12.13;;
29938;SDS011;16799;50.844;5.304;2023-03-01T09:54:49;20.40;;;13.27;;
29938;SDS011;16799;50.844;5.304;2023-03-01T09:57:21;17.93;;;14.37;;
29938;SDS011;16799;50.844;5.304;2023-03-01T10:00:00;18.43;;;13.60;;
29938;SDS011;16799;50.844;5.304;2023-03-01T10:02:41;22.20;;;13.40;;
29938;SDS011;16799;50.844;5.304;2023-03-01T10:10:36;22.63;;;13.27;;
29938;SDS011;16799;50.844;5.304;2023-03-01T10:13:10;19.47;;;13.57;;
29938;SDS011;16799;50.844;5.304;2023-03-01T10:15:47;14.80;;;12.10;;
29938;SDS011;16799;50.844;5.304;2023-03-01T10:18:34;18.00;;;11.63;;
29938;SDS011;16799;50.844;5.304;2023-03-01T10:21:07;22.00;;;13.20;;
29938;SDS011;16799;50.844;5.304;2023-03-01T10:23:44;16.27;;;10.70;;
29938;SDS011;16799;50.844;5.304;2023-03-01T10:29:04;16.10;;;13.40;;
29938;SDS011;16799;50.844;5.304;2023-03-01T10:31:39;25.87;;;13.20;;
29938;SDS011;16799;50.844;5.304;2023-03-01T10:34:17;21.13;;;14.50;;
29938;SDS011;16799;50.844;5.304;2023-03-01T10:36:45;18.70;;;13.27;;
29938;SDS011;16799;50.844;5.304;2023-03-01T10:39:15;15.43;;;12.97;;
29938;SDS011;16799;50.844;5.304;2023-03-01T10:47:21;17.47;;;13.77;;
29938;SDS011;16799;50.844;5.304;2023-03-01T10:49:54;20.80;;;13.50;;
29938;SDS011;16799;50.844;5.304;2023-03-01T10:52:32;17.33;;;13.23;;
29938;SDS011;16799;50.844;5.304;2023-03-01T10:55:45;18.73;;;14.60;;
29938;SDS011;16799;50.844;5.304;2023-03-01T10:58:05;15.23;;;12.17;;
29938;SDS011;16799;50.844;5.304;2023-03-01T11:00:54;21.07;;;14.27;;
29938;SDS011;16799;50.844;5.304;2023-03-01T11:03:36;22.97;;;13.60;;
29938;SDS011;16799;50.844;5.304;2023-03-01T11:08:42;14.87;;;11.37;;
29938;SDS011;16799;50.844;5.304;2023-03-01T11:16:32;14.27;;;12.60;;
29938;SDS011;16799;50.844;5.304;2023-03-01T11:19:04;23.23;;;14.60;;
29938;SDS011;16799;50.844;5.304;2023-03-01T11:24:42;15.33;;;12.27;;
29938;SDS011;16799;50.844;5.304;2023-03-01T11:29:39;18.97;;;12.03;;
29938;SDS011;16799;50.844;5.304;2023-03-01T11:32:09;16.60;;;13.03;;
29938;SDS011;16799;50.844;5.304;2023-03-01T11:34:48;23.47;;;13.10;;
29938;SDS011;16799;50.844;5.304;2023-03-01T11:40:21;23.17;;;14.50;;
29938;SDS011;16799;50.844;5.304;2023-03-01T11:45:18;19.50;;;13.33;;
29938;SDS011;16799;50.844;5.304;2023-03-01T11:47:59;18.73;;;13.67;;
29938;SDS011;16799;50.844;5.304;2023-03-01T11:50:46;16.83;;;12.57;;
29938;SDS011;16799;50.844;5.304;2023-03-01T11:53:20;19.97;;;13.57;;
29938;SDS011;16799;50.844;5.304;2023-03-01T11:55:58;14.97;;;12.80;;
29938;SDS011;16799;50.844;5.304;2023-03-01T11:58:29;14.60;;;11.10;;
29938;SDS011;16799;50.844;5.304;2023-03-01T12:04:36;17.07;;;12.63;;
29938;SDS011;16799;50.844;5.304;2023-03-01T12:09:49;21.50;;;13.57;;
29938;SDS011;16799;50.844;5.304;2023-03-01T12:15:05;20.47;;;14.60;;
29938;SDS011;16799;50.844;5.304;2023-03-01T12:20:21;16.23;;;12.60;;
29938;SDS011;16799;50.844;5.304;2023-03-01T12:23:20;13.20;;;11.83;;
29938;SDS011;16799;50.844;5.304;2023-03-01T12:49:16;13.73;;;12.13;;
29938;SDS011;16799;50.844;5.304;2023-03-01T12:54:30;15.63;;;14.00;;
29938;SDS011;16799;50.844;5.304;2023-03-01T12:56:59;14.23;;;12.83;;
29938;SDS011;16799;50.844;5.304;2023-03-01T13:10:48;17.73;;;12.97;;
29938;SDS011;16799;50.844;5.304;2023-03-01T13:13:22;16.60;;;12.73;;
29938;SDS011;16799;50.844;5.304;2023-03-01T13:15:49;13.87;;;12.10;;
29938;SDS011;16799;50.844;5.304;2023-03-01T13:20:48;17.27;;;14.90;;
29938;SDS011;16799;50.844;5.304;2023-03-01T13:26:00;18.43;;;12.40;;
29938;SDS011;16799;50.844;5.304;2023-03-01T13:33:47;14.07;;;12.63;;
29938;SDS011;16799;50.844;5.304;2023-03-01T13:57:38;13.13;;;11.33;;
29938;SDS011;16799;50.844;5.304;2023-03-01T14:00:06;14.70;;;12.37;;
29938;SDS011;16799;50.844;5.304;2023-03-01T14:02:59;14.07;;;10.90;;
29938;SDS011;16799;50.844;5.304;2023-03-01T14:05:29;18.47;;;10.67;;
29938;SDS011;16799;50.844;5.304;2023-03-01T14:07:56;12.83;;;11.00;;
29938;SDS011;16799;50.844;5.304;2023-03-01T14:10:21;15.83;;;11.03;;
29938;SDS011;16799;50.844;5.304;2023-03-01T14:13:10;11.87;;;10.50;;
29938;SDS011;16799;50.844;5.304;2023-03-01T14:19:43;13.43;;;10.43;;
29938;SDS011;16799;50.844;5.304;2023-03-01T14:21:58;10.90;;;9.80;;
29938;SDS011;16799;50.844;5.304;2023-03-01T14:24:51;18.43;;;11.33;;
29938;SDS011;16799;50.844;5.304;2023-03-01T14:27:21;15.13;;;11.90;;
29938;SDS011;16799;50.844;5.304;2023-03-01T14:29:58;13.90;;;11.40;;
29938;SDS011;16799;50.844;5.304;2023-03-01T14:32:27;16.07;;;12.27;;
29938;SDS011;16799;50.844;5.304;2023-03-01T14:34:54;20.33;;;12.80;;
29938;SDS011;16799;50.844;5.304;2023-03-01T14:37:25;15.00;;;11.90;;
29938;SDS011;16799;50.844;5.304;2023-03-01T14:39:53;16.27;;;12.43;;
29938;SDS011;16799;50.844;5.304;2023-03-01T14:42:21;21.50;;;12.50;;
29938;SDS011;16799;50.844;5.304;2023-03-01T14:44:48;15.57;;;12.23;;
29938;SDS011;16799;50.844;5.304;2023-03-01T14:49:48;16.70;;;10.43;;
29938;SDS011;16799;50.844;5.304;2023-03-01T14:52:22;19.10;;;12.03;;
29938;SDS011;16799;50.844;5.304;2023-03-01T14:54:52;16.33;;;12.40;;
29938;SDS011;16799;50.844;5.304;2023-03-01T14:57:20;19.03;;;10.70;;
29938;SDS011;16799;50.844;5.304;2023-03-01T14:59:49;16.43;;;10.70;;
29938;SDS011;16799;50.844;5.304;2023-03-01T15:02:18;11.90;;;10.57;;
29938;SDS011;16799;50.844;5.304;2023-03-01T15:04:47;15.90;;;11.27;;
29938;SDS011;16799;50.844;5.304;2023-03-01T15:07:15;18.23;;;10.90;;
29938;SDS011;16799;50.844;5.304;2023-03-01T15:09:41;12.43;;;9.80;;
29938;SDS011;16799;50.844;5.304;2023-03-01T15:14:51;13.90;;;10.03;;
29938;SDS011;16799;50.844;5.304;2023-03-01T15:17:31;16.00;;;10.73;;
29938;SDS011;16799;50.844;5.304;2023-03-01T15:20:04;11.77;;;10.57;;
29938;SDS011;16799;50.844;5.304;2023-03-01T15:22:46;16.90;;;8.40;;
29938;SDS011;16799;50.844;5.304;2023-03-01T15:25:16;21.03;;;9.80;;
29938;SDS011;16799;50.844;5.304;2023-03-01T15:27:47;9.73;;;8.60;;
29938;SDS011;16799;50.844;5.304;2023-03-01T15:30:22;12.00;;;8.90;;
29938;SDS011;16799;50.844;5.304;2023-03-01T15:35:59;18.10;;;9.67;;
29938;SDS011;16799;50.844;5.304;2023-03-01T15:38:32;11.30;;;8.90;;
29938;SDS011;16799;50.844;5.304;2023-03-01T15:41:05;10.60;;;9.30;;
29938;SDS011;16799;50.844;5.304;2023-03-01T15:43:47;12.23;;;9.37;;
29938;SDS011;16799;50.844;5.304;2023-03-01T15:46:25;9.00;;;8.10;;
29938;SDS011;16799;50.844;5.304;2023-03-01T15:49:03;13.50;;;8.50;;
29938;SDS011;16799;50.844;5.304;2023-03-01T15:51:45;12.53;;;8.53;;
29938;SDS011;16799;50.844;5.304;2023-03-01T15:54:14;9.30;;;8.33;;
29938;SDS011;16799;50.844;5.304;2023-03-01T15:56:45;18.63;;;8.93;;
29938;SDS011;16799;50.844;5.304;2023-03-01T15:59:11;15.43;;;10.57;;
29938;SDS011;16799;50.844;5.304;2023-03-01T16:01:39;12.57;;;9.17;;
29938;SDS011;16799;50.844;5.304;2023-03-01T16:04:05;17.20;;;8.63;;
29938;SDS011;16799;50.844;5.304;2023-03-01T16:06:31;14.20;;;9.00;;
29938;SDS011;16799;50.844;5.304;2023-03-01T16:08:57;10.87;;;8.17;;
29938;SDS011;16799;50.844;5.304;2023-03-01T16:11:22;9.83;;;8.40;;
29938;SDS011;16799;50.844;5.304;2023-03-01T16:13:48;9.27;;;8.37;;
29938;SDS011;16799;50.844;5.304;2023-03-01T16:16:15;14.13;;;8.87;;
29938;SDS011;16799;50.844;5.304;2023-03-01T16:18:42;9.17;;;7.80;;
29938;SDS011;16799;50.844;5.304;2023-03-01T16:21:16;14.80;;;9.00;;
29938;SDS011;16799;50.844;5.304;2023-03-01T16:23:48;9.17;;;8.23;;
29938;SDS011;16799;50.844;5.304;2023-03-01T16:26:14;7.77;;;7.17;;
29938;SDS011;16799;50.844;5.304;2023-03-01T16:28:41;9.30;;;8.40;;
29938;SDS011;16799;50.844;5.304;2023-03-01T16:31:07;11.87;;;8.07;;
29938;SDS011;16799;50.844;5.304;2023-03-01T16:33:34;8.03;;;7.27;;
29938;SDS011;16799;50.844;5.304;2023-03-01T16:36:05;14.70;;;7.50;;
29938;SDS011;16799;50.844;5.304;2023-03-01T16:38:35;15.07;;;8.17;;
29938;SDS011;16799;50.844;5.304;2023-03-01T16:41:01;11.27;;;7.60;;
29938;SDS011;16799;50.844;5.304;2023-03-01T16:43:27;12.30;;;8.03;;
29938;SDS011;16799;50.844;5.304;2023-03-01T16:45:53;11.40;;;7.97;;
29938;SDS011;16799;50.844;5.304;2023-03-01T16:48:19;8.40;;;6.83;;
29938;SDS011;16799;50.844;5.304;2023-03-01T16:50:45;9.37;;;8.00;;
29938;SDS011;16799;50.844;5.304;2023-03-01T16:53:10;8.97;;;7.17;;
29938;SDS011;16799;50.844;5.304;2023-03-01T16:55:37;9.67;;;7.47;;
29938;SDS011;16799;50.844;5.304;2023-03-01T16:58:10;13.23;;;7.43;;
29938;SDS011;16799;50.844;5.304;2023-03-01T17:00:35;9.17;;;7.37;;
29938;SDS011;16799;50.844;5.304;2023-03-01T17:03:01;17.40;;;8.03;;